sensor_id;sensor_type;location;lat;lon;timestamp;P1;durP1;ratioP1;P2;durP2;ratioP2
22268;SDS011;11303;50.772;19.670;2023-09-18T00:00:09;26.58;;;18.75;;
22268;SDS011;11303;50.772;19.670;2023-09-18T00:02:13;28.02;;;19.10;;
22268;SDS011;11303;50.772;19.670;2023-09-18T00:04:15;26.42;;;20.27;;
22268;SDS011;11303;50.772;19.670;2023-09-18T00:06:17;27.55;;;20.58;;
22268;SDS011;11303;50.772;19.670;2023-09-18T00:08:18;28.00;;;20.52;;
22268;SDS011;11303;50.772;19.670;2023-09-18T00:10:21;32.55;;;20.73;;
22268;SDS011;11303;50.772;19.670;2023-09-18T00:12:22;28.92;;;20.27;;
22268;SDS011;11303;50.772;19.670;2023-09-18T00:14:24;30.00;;;21.38;;
22268;SDS011;11303;50.772;19.670;2023-09-18T00:16:27;35.03;;;21.23;;
22268;SDS011;11303;50.772;19.670;2023-09-18T00:18:28;28.60;;;21.50;;
22268;SDS011;11303;50.772;19.670;2023-09-18T00:20:30;31.98;;;21.95;;
22268;SDS011;11303;50.772;19.670;2023-09-18T00:22:32;37.17;;;22.63;;
22268;SDS011;11303;50.772;19.670;2023-09-18T00:24:34;32.85;;;22.55;;
22268;SDS011;11303;50.772;19.670;2023-09-18T00:26:36;35.70;;;23.20;;
22268;SDS011;11303;50.772;19.670;2023-09-18T00:28:38;33.92;;;23.42;;
22268;SDS011;11303;50.772;19.670;2023-09-18T00:30:42;34.97;;;23.35;;
22268;SDS011;11303;50.772;19.670;2023-09-18T00:32:49;30.95;;;22.55;;
22268;SDS011;11303;50.772;19.670;2023-09-18T00:34:51;31.05;;;22.42;;
22268;SDS011;11303;50.772;19.670;2023-09-18T00:36:53;28.92;;;22.33;;
22268;SDS011;11303;50.772;19.670;2023-09-18T00:38:54;35.22;;;24.02;;
22268;SDS011;11303;50.772;19.670;2023-09-18T00:40:56;33.28;;;23.40;;
22268;SDS011;11303;50.772;19.670;2023-09-18T00:42:58;35.15;;;24.30;;
22268;SDS011;11303;50.772;19.670;2023-09-18T00:44:59;32.13;;;23.83;;
22268;SDS011;11303;50.772;19.670;2023-09-18T00:47:01;31.13;;;23.98;;
22268;SDS011;11303;50.772;19.670;2023-09-18T00:49:03;35.05;;;25.35;;
22268;SDS011;11303;50.772;19.670;2023-09-18T00:51:05;35.35;;;25.80;;
22268;SDS011;11303;50.772;19.670;2023-09-18T00:53:07;34.45;;;25.75;;
22268;SDS011;11303;50.772;19.670;2023-09-18T00:55:10;32.63;;;24.45;;
22268;SDS011;11303;50.772;19.670;2023-09-18T00:57:13;34.30;;;24.88;;
22268;SDS011;11303;50.772;19.670;2023-09-18T00:59:14;34.83;;;25.30;;
22268;SDS011;11303;50.772;19.670;2023-09-18T01:01:17;35.22;;;24.73;;
22268;SDS011;11303;50.772;19.670;2023-09-18T01:03:24;33.55;;;24.88;;
22268;SDS011;11303;50.772;19.670;2023-09-18T01:05:27;33.28;;;23.98;;
22268;SDS011;11303;50.772;19.670;2023-09-18T01:07:29;34.10;;;24.30;;
22268;SDS011;11303;50.772;19.670;2023-09-18T01:09:31;37.95;;;24.20;;
22268;SDS011;11303;50.772;19.670;2023-09-18T01:14:06;33.60;;;24.02;;
22268;SDS011;11303;50.772;19.670;2023-09-18T01:16:20;37.80;;;25.15;;
22268;SDS011;11303;50.772;19.670;2023-09-18T01:18:28;38.15;;;25.52;;
22268;SDS011;11303;50.772;19.670;2023-09-18T01:20:30;41.42;;;24.88;;
22268;SDS011;11303;50.772;19.670;2023-09-18T01:22:31;34.28;;;25.58;;
22268;SDS011;11303;50.772;19.670;2023-09-18T01:24:33;39.45;;;26.77;;
22268;SDS011;11303;50.772;19.670;2023-09-18T01:26:36;36.67;;;26.17;;
22268;SDS011;11303;50.772;19.670;2023-09-18T01:28:38;36.53;;;26.50;;
22268;SDS011;11303;50.772;19.670;2023-09-18T01:30:39;41.78;;;25.08;;
22268;SDS011;11303;50.772;19.670;2023-09-18T01:32:41;37.45;;;24.55;;
22268;SDS011;11303;50.772;19.670;2023-09-18T01:34:48;29.52;;;22.45;;
22268;SDS011;11303;50.772;19.670;2023-09-18T01:36:51;36.70;;;24.38;;
22268;SDS011;11303;50.772;19.670;2023-09-18T01:38:54;28.13;;;22.83;;
22268;SDS011;11303;50.772;19.670;2023-09-18T01:40:56;27.40;;;21.77;;
22268;SDS011;11303;50.772;19.670;2023-09-18T01:42:58;25.80;;;20.98;;
22268;SDS011;11303;50.772;19.670;2023-09-18T01:45:00;32.53;;;21.88;;
22268;SDS011;11303;50.772;19.670;2023-09-18T01:47:02;25.20;;;19.20;;
22268;SDS011;11303;50.772;19.670;2023-09-18T01:49:05;23.90;;;19.20;;
22268;SDS011;11303;50.772;19.670;2023-09-18T01:51:06;27.88;;;19.50;;
22268;SDS011;11303;50.772;19.670;2023-09-18T01:53:08;23.50;;;19.38;;
22268;SDS011;11303;50.772;19.670;2023-09-18T01:55:10;24.27;;;19.45;;
22268;SDS011;11303;50.772;19.670;2023-09-18T01:57:12;32.13;;;20.75;;
22268;SDS011;11303;50.772;19.670;2023-09-18T01:59:13;25.45;;;19.35;;
22268;SDS011;11303;50.772;19.670;2023-09-18T02:01:16;25.17;;;19.83;;
22268;SDS011;11303;50.772;19.670;2023-09-18T02:03:18;28.55;;;19.55;;
22268;SDS011;11303;50.772;19.670;2023-09-18T02:05:41;25.05;;;19.73;;
22268;SDS011;11303;50.772;19.670;2023-09-18T02:07:43;23.17;;;19.38;;
22268;SDS011;11303;50.772;19.670;2023-09-18T02:09:45;22.52;;;18.92;;
22268;SDS011;11303;50.772;19.670;2023-09-18T02:11:47;30.33;;;20.33;;
22268;SDS011;11303;50.772;19.670;2023-09-18T02:13:51;27.48;;;19.48;;
22268;SDS011;11303;50.772;19.670;2023-09-18T02:15:53;29.42;;;20.80;;
22268;SDS011;11303;50.772;19.670;2023-09-18T02:17:55;30.40;;;21.05;;
22268;SDS011;11303;50.772;19.670;2023-09-18T02:19:56;26.58;;;21.00;;
22268;SDS011;11303;50.772;19.670;2023-09-18T02:21:58;30.33;;;21.08;;
22268;SDS011;11303;50.772;19.670;2023-09-18T02:24:00;29.42;;;21.17;;
22268;SDS011;11303;50.772;19.670;2023-09-18T02:26:01;30.45;;;22.30;;
22268;SDS011;11303;50.772;19.670;2023-09-18T02:28:03;29.02;;;21.80;;
22268;SDS011;11303;50.772;19.670;2023-09-18T02:30:05;29.17;;;21.60;;
22268;SDS011;11303;50.772;19.670;2023-09-18T02:32:08;31.48;;;22.98;;
22268;SDS011;11303;50.772;19.670;2023-09-18T02:34:11;29.30;;;22.42;;
22268;SDS011;11303;50.772;19.670;2023-09-18T02:36:13;29.33;;;23.25;;
22268;SDS011;11303;50.772;19.670;2023-09-18T02:38:15;29.17;;;22.02;;
22268;SDS011;11303;50.772;19.670;2023-09-18T02:40:17;30.77;;;22.52;;
22268;SDS011;11303;50.772;19.670;2023-09-18T02:42:18;29.48;;;22.63;;
22268;SDS011;11303;50.772;19.670;2023-09-18T02:44:20;30.42;;;22.20;;
22268;SDS011;11303;50.772;19.670;2023-09-18T02:46:22;32.00;;;22.65;;
22268;SDS011;11303;50.772;19.670;2023-09-18T02:48:23;31.58;;;22.38;;
22268;SDS011;11303;50.772;19.670;2023-09-18T02:50:25;29.48;;;22.40;;
22268;SDS011;11303;50.772;19.670;2023-09-18T02:52:27;36.10;;;22.88;;
22268;SDS011;11303;50.772;19.670;2023-09-18T02:54:29;34.05;;;22.83;;
22268;SDS011;11303;50.772;19.670;2023-09-18T02:56:30;31.15;;;22.63;;
22268;SDS011;11303;50.772;19.670;2023-09-18T02:58:32;30.80;;;22.15;;
22268;SDS011;11303;50.772;19.670;2023-09-18T03:00:34;31.08;;;23.30;;
22268;SDS011;11303;50.772;19.670;2023-09-18T03:02:44;30.40;;;21.63;;
22268;SDS011;11303;50.772;19.670;2023-09-18T03:04:46;28.55;;;20.73;;
22268;SDS011;11303;50.772;19.670;2023-09-18T03:06:47;31.58;;;21.15;;
22268;SDS011;11303;50.772;19.670;2023-09-18T03:08:50;33.30;;;21.40;;
22268;SDS011;11303;50.772;19.670;2023-09-18T03:10:52;29.13;;;20.65;;
22268;SDS011;11303;50.772;19.670;2023-09-18T03:12:53;30.50;;;20.25;;
22268;SDS011;11303;50.772;19.670;2023-09-18T03:14:55;29.40;;;21.08;;
22268;SDS011;11303;50.772;19.670;2023-09-18T03:16:56;31.27;;;22.10;;
22268;SDS011;11303;50.772;19.670;2023-09-18T03:18:58;30.38;;;21.63;;
22268;SDS011;11303;50.772;19.670;2023-09-18T03:21:00;28.77;;;21.50;;
22268;SDS011;11303;50.772;19.670;2023-09-18T03:23:01;29.23;;;21.95;;
22268;SDS011;11303;50.772;19.670;2023-09-18T03:25:03;33.28;;;22.23;;
22268;SDS011;11303;50.772;19.670;2023-09-18T03:27:05;28.83;;;20.38;;
22268;SDS011;11303;50.772;19.670;2023-09-18T03:29:07;28.13;;;19.75;;
22268;SDS011;11303;50.772;19.670;2023-09-18T03:31:09;28.90;;;19.67;;
22268;SDS011;11303;50.772;19.670;2023-09-18T03:33:10;27.98;;;20.05;;
22268;SDS011;11303;50.772;19.670;2023-09-18T03:35:12;28.45;;;19.90;;
22268;SDS011;11303;50.772;19.670;2023-09-18T03:37:20;27.45;;;18.00;;
22268;SDS011;11303;50.772;19.670;2023-09-18T03:39:22;25.77;;;18.67;;
22268;SDS011;11303;50.772;19.670;2023-09-18T03:41:23;28.58;;;18.63;;
22268;SDS011;11303;50.772;19.670;2023-09-18T03:43:25;26.25;;;18.80;;
22268;SDS011;11303;50.772;19.670;2023-09-18T03:45:27;24.85;;;18.38;;
22268;SDS011;11303;50.772;19.670;2023-09-18T03:47:28;26.67;;;18.50;;
22268;SDS011;11303;50.772;19.670;2023-09-18T03:49:30;28.20;;;19.98;;
22268;SDS011;11303;50.772;19.670;2023-09-18T03:51:32;27.75;;;19.58;;
22268;SDS011;11303;50.772;19.670;2023-09-18T03:53:33;27.02;;;19.27;;
22268;SDS011;11303;50.772;19.670;2023-09-18T03:55:35;30.70;;;20.45;;
22268;SDS011;11303;50.772;19.670;2023-09-18T03:57:38;33.15;;;20.98;;
22268;SDS011;11303;50.772;19.670;2023-09-18T03:59:40;30.38;;;20.55;;
22268;SDS011;11303;50.772;19.670;2023-09-18T04:01:42;26.85;;;19.23;;
22268;SDS011;11303;50.772;19.670;2023-09-18T04:03:43;27.27;;;18.83;;
22268;SDS011;11303;50.772;19.670;2023-09-18T04:05:45;31.17;;;18.83;;
22268;SDS011;11303;50.772;19.670;2023-09-18T04:07:47;24.33;;;18.30;;
22268;SDS011;11303;50.772;19.670;2023-09-18T04:09:48;30.08;;;19.20;;
22268;SDS011;11303;50.772;19.670;2023-09-18T04:11:50;27.10;;;19.40;;
22268;SDS011;11303;50.772;19.670;2023-09-18T04:13:52;33.03;;;20.60;;
22268;SDS011;11303;50.772;19.670;2023-09-18T04:15:53;26.92;;;19.25;;
22268;SDS011;11303;50.772;19.670;2023-09-18T04:17:58;28.05;;;18.90;;
22268;SDS011;11303;50.772;19.670;2023-09-18T04:20:00;27.70;;;19.33;;
22268;SDS011;11303;50.772;19.670;2023-09-18T04:22:03;30.52;;;20.17;;
22268;SDS011;11303;50.772;19.670;2023-09-18T04:24:04;29.73;;;21.05;;
22268;SDS011;11303;50.772;19.670;2023-09-18T04:26:06;35.35;;;23.30;;
22268;SDS011;11303;50.772;19.670;2023-09-18T04:28:08;38.05;;;24.10;;
22268;SDS011;11303;50.772;19.670;2023-09-18T04:30:09;34.58;;;22.73;;
22268;SDS011;11303;50.772;19.670;2023-09-18T04:32:11;38.05;;;25.42;;
22268;SDS011;11303;50.772;19.670;2023-09-18T04:34:13;40.33;;;25.15;;
22268;SDS011;11303;50.772;19.670;2023-09-18T04:36:15;37.38;;;24.38;;
22268;SDS011;11303;50.772;19.670;2023-09-18T04:38:17;38.15;;;23.90;;
22268;SDS011;11303;50.772;19.670;2023-09-18T04:40:21;45.35;;;30.35;;
22268;SDS011;11303;50.772;19.670;2023-09-18T04:42:22;56.17;;;34.70;;
22268;SDS011;11303;50.772;19.670;2023-09-18T04:44:24;64.88;;;35.65;;
22268;SDS011;11303;50.772;19.670;2023-09-18T04:46:25;59.00;;;35.97;;
22268;SDS011;11303;50.772;19.670;2023-09-18T04:48:27;59.42;;;35.22;;
22268;SDS011;11303;50.772;19.670;2023-09-18T04:50:29;54.85;;;34.60;;
22268;SDS011;11303;50.772;19.670;2023-09-18T04:52:31;49.30;;;32.55;;
22268;SDS011;11303;50.772;19.670;2023-09-18T04:54:32;52.72;;;32.50;;
22268;SDS011;11303;50.772;19.670;2023-09-18T04:56:34;45.33;;;28.83;;
22268;SDS011;11303;50.772;19.670;2023-09-18T04:58:36;42.92;;;28.13;;
22268;SDS011;11303;50.772;19.670;2023-09-18T05:00:38;38.45;;;26.25;;
22268;SDS011;11303;50.772;19.670;2023-09-18T05:02:40;36.97;;;24.20;;
22268;SDS011;11303;50.772;19.670;2023-09-18T05:04:42;30.95;;;23.55;;
22268;SDS011;11303;50.772;19.670;2023-09-18T05:06:44;27.77;;;19.88;;
22268;SDS011;11303;50.772;19.670;2023-09-18T05:08:45;19.75;;;16.90;;
22268;SDS011;11303;50.772;19.670;2023-09-18T05:10:47;20.13;;;14.40;;
22268;SDS011;11303;50.772;19.670;2023-09-18T05:12:49;15.95;;;13.50;;
22268;SDS011;11303;50.772;19.670;2023-09-18T05:14:51;16.33;;;13.25;;
22268;SDS011;11303;50.772;19.670;2023-09-18T05:16:53;15.02;;;12.40;;
22268;SDS011;11303;50.772;19.670;2023-09-18T05:18:55;14.93;;;11.68;;
22268;SDS011;11303;50.772;19.670;2023-09-18T05:20:57;14.43;;;12.00;;
22268;SDS011;11303;50.772;19.670;2023-09-18T05:22:59;15.40;;;12.43;;
22268;SDS011;11303;50.772;19.670;2023-09-18T05:25:01;17.20;;;12.85;;
22268;SDS011;11303;50.772;19.670;2023-09-18T05:27:03;13.38;;;12.00;;
22268;SDS011;11303;50.772;19.670;2023-09-18T05:29:07;18.45;;;11.70;;
22268;SDS011;11303;50.772;19.670;2023-09-18T05:31:09;16.38;;;12.10;;
22268;SDS011;11303;50.772;19.670;2023-09-18T05:33:10;12.65;;;11.35;;
22268;SDS011;11303;50.772;19.670;2023-09-18T05:35:12;15.95;;;12.45;;
22268;SDS011;11303;50.772;19.670;2023-09-18T05:37:15;15.38;;;11.65;;
22268;SDS011;11303;50.772;19.670;2023-09-18T05:39:17;14.13;;;11.90;;
22268;SDS011;11303;50.772;19.670;2023-09-18T05:41:18;13.57;;;12.18;;
22268;SDS011;11303;50.772;19.670;2023-09-18T05:43:20;17.48;;;11.70;;
22268;SDS011;11303;50.772;19.670;2023-09-18T05:45:22;13.80;;;10.60;;
22268;SDS011;11303;50.772;19.670;2023-09-18T05:47:24;14.35;;;10.55;;
22268;SDS011;11303;50.772;19.670;2023-09-18T05:49:26;10.65;;;9.52;;
22268;SDS011;11303;50.772;19.670;2023-09-18T05:51:29;15.00;;;10.23;;
22268;SDS011;11303;50.772;19.670;2023-09-18T05:53:31;11.15;;;10.05;;
22268;SDS011;11303;50.772;19.670;2023-09-18T05:55:33;12.95;;;10.32;;
22268;SDS011;11303;50.772;19.670;2023-09-18T05:57:35;11.75;;;10.30;;
22268;SDS011;11303;50.772;19.670;2023-09-18T05:59:37;15.88;;;10.50;;
22268;SDS011;11303;50.772;19.670;2023-09-18T06:01:41;11.65;;;9.82;;
22268;SDS011;11303;50.772;19.670;2023-09-18T06:03:43;11.20;;;9.30;;
22268;SDS011;11303;50.772;19.670;2023-09-18T06:05:45;11.95;;;9.93;;
22268;SDS011;11303;50.772;19.670;2023-09-18T06:07:47;11.65;;;9.20;;
22268;SDS011;11303;50.772;19.670;2023-09-18T06:09:51;12.30;;;10.18;;
22268;SDS011;11303;50.772;19.670;2023-09-18T06:11:53;12.85;;;9.80;;
22268;SDS011;11303;50.772;19.670;2023-09-18T06:13:55;10.93;;;9.43;;
22268;SDS011;11303;50.772;19.670;2023-09-18T06:15:57;11.30;;;9.32;;
22268;SDS011;11303;50.772;19.670;2023-09-18T06:17:58;10.70;;;9.60;;
22268;SDS011;11303;50.772;19.670;2023-09-18T06:20:00;14.90;;;10.88;;
22268;SDS011;11303;50.772;19.670;2023-09-18T06:22:02;12.30;;;11.10;;
22268;SDS011;11303;50.772;19.670;2023-09-18T06:24:03;11.25;;;9.65;;
22268;SDS011;11303;50.772;19.670;2023-09-18T06:26:05;11.90;;;9.23;;
22268;SDS011;11303;50.772;19.670;2023-09-18T06:28:07;11.00;;;9.90;;
22268;SDS011;11303;50.772;19.670;2023-09-18T06:30:08;12.15;;;9.02;;
22268;SDS011;11303;50.772;19.670;2023-09-18T06:32:11;12.80;;;10.60;;
22268;SDS011;11303;50.772;19.670;2023-09-18T06:34:13;11.23;;;10.13;;
22268;SDS011;11303;50.772;19.670;2023-09-18T06:36:15;13.68;;;11.13;;
22268;SDS011;11303;50.772;19.670;2023-09-18T06:38:16;12.25;;;10.95;;
22268;SDS011;11303;50.772;19.670;2023-09-18T06:40:18;12.50;;;11.10;;
22268;SDS011;11303;50.772;19.670;2023-09-18T06:42:20;12.65;;;10.68;;
22268;SDS011;11303;50.772;19.670;2023-09-18T06:44:21;12.90;;;11.65;;
22268;SDS011;11303;50.772;19.670;2023-09-18T06:46:25;12.95;;;11.30;;
22268;SDS011;11303;50.772;19.670;2023-09-18T06:48:27;12.38;;;11.07;;
22268;SDS011;11303;50.772;19.670;2023-09-18T06:50:33;11.90;;;10.70;;
22268;SDS011;11303;50.772;19.670;2023-09-18T06:52:35;14.07;;;11.15;;
22268;SDS011;11303;50.772;19.670;2023-09-18T06:54:36;15.27;;;12.10;;
22268;SDS011;11303;50.772;19.670;2023-09-18T06:56:38;13.07;;;11.73;;
22268;SDS011;11303;50.772;19.670;2023-09-18T06:58:40;13.18;;;11.18;;
22268;SDS011;11303;50.772;19.670;2023-09-18T07:00:41;13.18;;;11.18;;
22268;SDS011;11303;50.772;19.670;2023-09-18T07:02:46;17.02;;;12.00;;
22268;SDS011;11303;50.772;19.670;2023-09-18T07:04:48;17.15;;;12.15;;
22268;SDS011;11303;50.772;19.670;2023-09-18T07:06:50;15.48;;;11.35;;
22268;SDS011;11303;50.772;19.670;2023-09-18T07:08:53;15.07;;;12.35;;
22268;SDS011;11303;50.772;19.670;2023-09-18T07:10:55;13.68;;;11.27;;
22268;SDS011;11303;50.772;19.670;2023-09-18T07:12:56;13.20;;;11.38;;
22268;SDS011;11303;50.772;19.670;2023-09-18T07:15:00;14.02;;;10.90;;
22268;SDS011;11303;50.772;19.670;2023-09-18T07:17:04;12.65;;;11.38;;
22268;SDS011;11303;50.772;19.670;2023-09-18T07:19:06;13.50;;;12.07;;
22268;SDS011;11303;50.772;19.670;2023-09-18T07:21:08;13.88;;;11.07;;
22268;SDS011;11303;50.772;19.670;2023-09-18T07:23:10;12.82;;;10.43;;
22268;SDS011;11303;50.772;19.670;2023-09-18T07:25:12;16.02;;;10.45;;
22268;SDS011;11303;50.772;19.670;2023-09-18T07:27:14;14.55;;;9.77;;
22268;SDS011;11303;50.772;19.670;2023-09-18T07:29:16;12.15;;;9.25;;
22268;SDS011;11303;50.772;19.670;2023-09-18T07:31:17;16.40;;;10.77;;
22268;SDS011;11303;50.772;19.670;2023-09-18T07:33:19;15.15;;;9.90;;
22268;SDS011;11303;50.772;19.670;2023-09-18T07:35:21;10.18;;;8.68;;
22268;SDS011;11303;50.772;19.670;2023-09-18T07:37:24;16.35;;;9.35;;
22268;SDS011;11303;50.772;19.670;2023-09-18T07:39:25;11.50;;;8.80;;
22268;SDS011;11303;50.772;19.670;2023-09-18T07:41:31;15.20;;;8.27;;
22268;SDS011;11303;50.772;19.670;2023-09-18T07:43:33;10.75;;;8.15;;
22268;SDS011;11303;50.772;19.670;2023-09-18T07:45:37;11.50;;;7.90;;
22268;SDS011;11303;50.772;19.670;2023-09-18T07:47:40;11.50;;;8.77;;
22268;SDS011;11303;50.772;19.670;2023-09-18T07:49:42;10.18;;;8.48;;
22268;SDS011;11303;50.772;19.670;2023-09-18T07:51:44;10.25;;;7.78;;
22268;SDS011;11303;50.772;19.670;2023-09-18T07:53:46;14.85;;;8.07;;
22268;SDS011;11303;50.772;19.670;2023-09-18T07:55:48;13.15;;;8.73;;
22268;SDS011;11303;50.772;19.670;2023-09-18T07:57:58;10.48;;;8.43;;
22268;SDS011;11303;50.772;19.670;2023-09-18T08:00:00;10.38;;;8.00;;
22268;SDS011;11303;50.772;19.670;2023-09-18T08:02:13;9.55;;;8.65;;
22268;SDS011;11303;50.772;19.670;2023-09-18T08:04:15;11.10;;;7.95;;
22268;SDS011;11303;50.772;19.670;2023-09-18T08:06:17;10.23;;;7.85;;
22268;SDS011;11303;50.772;19.670;2023-09-18T08:08:20;9.00;;;8.20;;
22268;SDS011;11303;50.772;19.670;2023-09-18T08:10:23;13.35;;;8.40;;
22268;SDS011;11303;50.772;19.670;2023-09-18T08:12:25;11.88;;;8.15;;
22268;SDS011;11303;50.772;19.670;2023-09-18T08:14:26;9.82;;;7.88;;
22268;SDS011;11303;50.772;19.670;2023-09-18T08:16:28;9.65;;;8.05;;
22268;SDS011;11303;50.772;19.670;2023-09-18T08:18:30;9.27;;;7.82;;
22268;SDS011;11303;50.772;19.670;2023-09-18T08:20:33;9.45;;;7.55;;
22268;SDS011;11303;50.772;19.670;2023-09-18T08:22:34;8.50;;;7.65;;
22268;SDS011;11303;50.772;19.670;2023-09-18T08:24:36;12.35;;;7.97;;
22268;SDS011;11303;50.772;19.670;2023-09-18T08:26:38;9.95;;;7.00;;
22268;SDS011;11303;50.772;19.670;2023-09-18T08:28:39;11.77;;;8.55;;
22268;SDS011;11303;50.772;19.670;2023-09-18T08:30:45;12.73;;;8.63;;
22268;SDS011;11303;50.772;19.670;2023-09-18T08:32:48;8.88;;;8.02;;
22268;SDS011;11303;50.772;19.670;2023-09-18T08:34:50;10.82;;;7.75;;
22268;SDS011;11303;50.772;19.670;2023-09-18T08:36:52;8.65;;;7.82;;
22268;SDS011;11303;50.772;19.670;2023-09-18T08:38:53;8.90;;;8.00;;
22268;SDS011;11303;50.772;19.670;2023-09-18T08:40:56;9.93;;;8.23;;
22268;SDS011;11303;50.772;19.670;2023-09-18T08:42:58;13.68;;;8.45;;
22268;SDS011;11303;50.772;19.670;2023-09-18T08:45:08;13.27;;;8.60;;
22268;SDS011;11303;50.772;19.670;2023-09-18T08:47:12;10.82;;;7.90;;
22268;SDS011;11303;50.772;19.670;2023-09-18T08:49:15;13.68;;;9.02;;
22268;SDS011;11303;50.772;19.670;2023-09-18T08:51:18;9.48;;;8.57;;
22268;SDS011;11303;50.772;19.670;2023-09-18T08:53:21;12.15;;;10.80;;
22268;SDS011;11303;50.772;19.670;2023-09-18T08:55:23;15.32;;;8.55;;
22268;SDS011;11303;50.772;19.670;2023-09-18T08:57:25;11.55;;;9.40;;
22268;SDS011;11303;50.772;19.670;2023-09-18T08:59:29;30.10;;;10.23;;
22268;SDS011;11303;50.772;19.670;2023-09-18T09:01:32;157.63;;;18.50;;
22268;SDS011;11303;50.772;19.670;2023-09-18T09:03:34;9.63;;;8.13;;
22268;SDS011;11303;50.772;19.670;2023-09-18T09:05:36;9.00;;;8.20;;
22268;SDS011;11303;50.772;19.670;2023-09-18T09:07:38;8.77;;;7.97;;
22268;SDS011;11303;50.772;19.670;2023-09-18T09:09:39;11.38;;;8.50;;
22268;SDS011;11303;50.772;19.670;2023-09-18T09:11:49;11.20;;;8.73;;
22268;SDS011;11303;50.772;19.670;2023-09-18T09:16:17;38.97;;;11.20;;
22268;SDS011;11303;50.772;19.670;2023-09-18T09:18:20;11.40;;;8.10;;
22268;SDS011;11303;50.772;19.670;2023-09-18T09:20:21;12.68;;;8.43;;
22268;SDS011;11303;50.772;19.670;2023-09-18T09:22:23;12.73;;;8.55;;
22268;SDS011;11303;50.772;19.670;2023-09-18T09:24:43;9.20;;;7.90;;
22268;SDS011;11303;50.772;19.670;2023-09-18T09:26:56;11.88;;;7.75;;
22268;SDS011;11303;50.772;19.670;2023-09-18T09:29:05;9.23;;;8.35;;
22268;SDS011;11303;50.772;19.670;2023-09-18T09:31:23;12.68;;;8.95;;
22268;SDS011;11303;50.772;19.670;2023-09-18T09:33:26;12.18;;;8.63;;
22268;SDS011;11303;50.772;19.670;2023-09-18T09:35:29;9.48;;;8.23;;
22268;SDS011;11303;50.772;19.670;2023-09-18T09:37:32;12.20;;;8.38;;
22268;SDS011;11303;50.772;19.670;2023-09-18T09:39:34;9.75;;;7.22;;
22268;SDS011;11303;50.772;19.670;2023-09-18T09:41:36;8.73;;;6.47;;
22268;SDS011;11303;50.772;19.670;2023-09-18T09:43:37;6.68;;;5.97;;
22268;SDS011;11303;50.772;19.670;2023-09-18T09:45:44;7.03;;;6.32;;
22268;SDS011;11303;50.772;19.670;2023-09-18T09:47:47;9.82;;;5.53;;
22268;SDS011;11303;50.772;19.670;2023-09-18T09:49:49;6.65;;;6.05;;
22268;SDS011;11303;50.772;19.670;2023-09-18T09:51:50;10.05;;;6.03;;
22268;SDS011;11303;50.772;19.670;2023-09-18T09:53:52;6.95;;;5.68;;
22268;SDS011;11303;50.772;19.670;2023-09-18T09:55:54;8.93;;;6.15;;
22268;SDS011;11303;50.772;19.670;2023-09-18T09:58:00;8.23;;;5.63;;
22268;SDS011;11303;50.772;19.670;2023-09-18T10:00:04;6.45;;;5.85;;
22268;SDS011;11303;50.772;19.670;2023-09-18T10:02:26;8.35;;;6.00;;
22268;SDS011;11303;50.772;19.670;2023-09-18T10:04:28;7.57;;;6.20;;
22268;SDS011;11303;50.772;19.670;2023-09-18T10:06:33;11.43;;;6.43;;
22268;SDS011;11303;50.772;19.670;2023-09-18T10:08:36;12.70;;;6.65;;
22268;SDS011;11303;50.772;19.670;2023-09-18T10:10:42;17.27;;;6.95;;
22268;SDS011;11303;50.772;19.670;2023-09-18T10:12:47;16.98;;;6.53;;
22268;SDS011;11303;50.772;19.670;2023-09-18T10:14:50;17.65;;;6.47;;
22268;SDS011;11303;50.772;19.670;2023-09-18T10:17:12;7.85;;;6.90;;
22268;SDS011;11303;50.772;19.670;2023-09-18T10:24:28;8.90;;;6.28;;
22268;SDS011;11303;50.772;19.670;2023-09-18T10:26:24;11.10;;;6.57;;
22268;SDS011;11303;50.772;19.670;2023-09-18T10:28:30;8.57;;;6.35;;
22268;SDS011;11303;50.772;19.670;2023-09-18T10:30:32;7.45;;;6.63;;
22268;SDS011;11303;50.772;19.670;2023-09-18T10:32:35;7.93;;;6.82;;
22268;SDS011;11303;50.772;19.670;2023-09-18T10:34:40;7.95;;;7.15;;
22268;SDS011;11303;50.772;19.670;2023-09-18T10:36:42;10.70;;;7.93;;
22268;SDS011;11303;50.772;19.670;2023-09-18T10:38:46;8.15;;;5.97;;
22268;SDS011;11303;50.772;19.670;2023-09-18T10:40:52;14.35;;;7.10;;
22268;SDS011;11303;50.772;19.670;2023-09-18T10:42:54;8.60;;;7.70;;
22268;SDS011;11303;50.772;19.670;2023-09-18T10:44:59;9.90;;;8.13;;
22268;SDS011;11303;50.772;19.670;2023-09-18T10:47:03;8.30;;;7.32;;
22268;SDS011;11303;50.772;19.670;2023-09-18T10:49:07;8.90;;;7.18;;
22268;SDS011;11303;50.772;19.670;2023-09-18T10:51:09;11.45;;;7.78;;
22268;SDS011;11303;50.772;19.670;2023-09-18T10:53:12;8.63;;;7.25;;
22268;SDS011;11303;50.772;19.670;2023-09-18T10:55:14;12.05;;;7.28;;
22268;SDS011;11303;50.772;19.670;2023-09-18T10:57:16;12.63;;;7.20;;
22268;SDS011;11303;50.772;19.670;2023-09-18T10:59:18;9.63;;;7.25;;
22268;SDS011;11303;50.772;19.670;2023-09-18T11:01:24;8.02;;;7.22;;
22268;SDS011;11303;50.772;19.670;2023-09-18T11:03:28;8.85;;;7.22;;
22268;SDS011;11303;50.772;19.670;2023-09-18T11:05:31;13.85;;;7.18;;
22268;SDS011;11303;50.772;19.670;2023-09-18T11:07:34;8.38;;;7.07;;
22268;SDS011;11303;50.772;19.670;2023-09-18T11:09:43;9.73;;;7.22;;
22268;SDS011;11303;50.772;19.670;2023-09-18T11:11:46;8.80;;;7.38;;
22268;SDS011;11303;50.772;19.670;2023-09-18T11:13:51;12.13;;;6.78;;
22268;SDS011;11303;50.772;19.670;2023-09-18T11:16:00;7.65;;;6.90;;
22268;SDS011;11303;50.772;19.670;2023-09-18T11:18:03;8.48;;;7.28;;
22268;SDS011;11303;50.772;19.670;2023-09-18T11:20:15;8.63;;;7.15;;
22268;SDS011;11303;50.772;19.670;2023-09-18T11:22:19;9.57;;;7.30;;
22268;SDS011;11303;50.772;19.670;2023-09-18T11:24:21;7.70;;;6.90;;
22268;SDS011;11303;50.772;19.670;2023-09-18T11:26:23;7.95;;;6.57;;
22268;SDS011;11303;50.772;19.670;2023-09-18T11:28:30;11.02;;;6.72;;
22268;SDS011;11303;50.772;19.670;2023-09-18T11:30:35;11.93;;;7.80;;
22268;SDS011;11303;50.772;19.670;2023-09-18T11:32:38;11.90;;;8.00;;
22268;SDS011;11303;50.772;19.670;2023-09-18T11:34:43;12.73;;;7.72;;
22268;SDS011;11303;50.772;19.670;2023-09-18T11:36:45;12.70;;;7.85;;
22268;SDS011;11303;50.772;19.670;2023-09-18T11:38:57;14.13;;;8.15;;
22268;SDS011;11303;50.772;19.670;2023-09-18T11:41:23;9.68;;;8.02;;
22268;SDS011;11303;50.772;19.670;2023-09-18T11:43:29;9.82;;;7.95;;
22268;SDS011;11303;50.772;19.670;2023-09-18T11:45:31;10.63;;;8.27;;
22268;SDS011;11303;50.772;19.670;2023-09-18T11:47:34;11.18;;;7.97;;
22268;SDS011;11303;50.772;19.670;2023-09-18T11:49:48;11.55;;;8.60;;
22268;SDS011;11303;50.772;19.670;2023-09-18T11:51:54;12.25;;;8.25;;
22268;SDS011;11303;50.772;19.670;2023-09-18T11:53:59;8.43;;;7.63;;
22268;SDS011;11303;50.772;19.670;2023-09-18T11:56:02;12.27;;;7.70;;
22268;SDS011;11303;50.772;19.670;2023-09-18T11:58:05;9.05;;;7.72;;
22268;SDS011;11303;50.772;19.670;2023-09-18T12:00:18;7.95;;;6.90;;
22268;SDS011;11303;50.772;19.670;2023-09-18T12:02:29;8.60;;;7.53;;
22268;SDS011;11303;50.772;19.670;2023-09-18T12:04:37;10.50;;;8.18;;